Time;durP1;ratioP1;P1;durP2;ratioP2;P2;SDS_P1;SDS_P2;PMS_P1;PMS_P2;Temp;Humidity;BMP_temperature;BMP_pressure;BME280_temperature;BME280_humidity;BME280_pressure;Samples;Min_cycle;Max_cycle;Signal;HPM_P1;HPM_P2
2022/07/22 00:00:54;;;;;;;12.32;6.07;;;;;;;15.58;88.47;102087.00;4988533;28;20121;-80
2022/07/22 00:03:20;;;;;;;11.38;5.82;;;;;;;15.70;88.86;102096.47;4995363;28;20521;-79
2022/07/22 00:05:46;;;;;;;11.40;6.13;;;;;;;15.58;88.81;102092.22;4988489;28;20478;-80
2022/07/22 00:08:11;;;;;;;12.13;6.68;;;;;;;15.57;88.99;102077.50;4987631;28;20078;-80
2022/07/22 00:10:37;;;;;;;12.73;6.47;;;;;;;15.74;88.58;102087.41;4987036;28;20022;-79
2022/07/22 00:13:02;;;;;;;12.15;7.50;;;;;;;15.65;88.39;102093.41;4978601;28;20031;-80
2022/07/22 00:15:27;;;;;;;12.70;6.95;;;;;;;15.60;88.76;102090.34;4984704;28;20422;-80
2022/07/22 00:17:53;;;;;;;14.45;7.15;;;;;;;15.65;88.57;102089.03;4986402;28;20382;-80
2022/07/22 00:20:19;;;;;;;12.80;6.97;;;;;;;15.68;89.04;102082.69;4987687;28;20064;-80
2022/07/22 00:22:44;;;;;;;11.75;6.78;;;;;;;15.62;89.23;102085.78;4987033;28;20232;-80
2022/07/22 00:25:10;;;;;;;11.27;7.07;;;;;;;15.59;88.69;102078.19;4987397;28;20069;-79
2022/07/22 00:27:35;;;;;;;12.90;6.82;;;;;;;15.72;88.79;102084.09;4987850;28;20521;-80
2022/07/22 00:30:00;;;;;;;14.90;7.15;;;;;;;15.59;88.77;102083.41;4987570;28;20439;-80
2022/07/22 00:32:26;;;;;;;13.30;6.65;;;;;;;15.68;88.76;102081.88;4986454;28;20030;-80
2022/07/22 00:34:51;;;;;;;13.75;7.30;;;;;;;15.68;88.58;102067.00;4987764;28;20069;-80
2022/07/22 00:37:17;;;;;;;11.90;6.20;;;;;;;15.72;88.66;102073.66;4986475;28;20520;-80
2022/07/22 00:39:42;;;;;;;10.73;6.15;;;;;;;15.67;88.26;102073.19;4987898;28;20022;-80
2022/07/22 00:42:07;;;;;;;10.98;5.93;;;;;;;15.65;88.02;102077.72;4987341;28;20022;-80
2022/07/22 00:44:33;;;;;;;11.80;5.53;;;;;;;15.66;87.92;102087.25;4988024;28;20046;-80
2022/07/22 00:46:59;;;;;;;12.23;5.85;;;;;;;15.64;88.20;102082.09;4987573;28;20022;-80
2022/07/22 00:49:24;;;;;;;11.45;5.63;;;;;;;15.61;87.58;102081.53;5003308;28;20375;-80
2022/07/22 00:51:50;;;;;;;10.57;5.00;;;;;;;15.57;87.69;102070.47;4983770;28;20026;-77
2022/07/22 00:54:16;;;;;;;12.60;5.07;;;;;;;15.51;87.62;102064.94;4986715;28;20467;-77
2022/07/22 00:56:42;;;;;;;13.18;4.90;;;;;;;15.58;87.44;102071.31;4987040;28;20038;-79
2022/07/22 00:59:10;;;;;;;11.57;4.88;;;;;;;15.57;87.49;102070.47;4987735;28;20029;-80
2022/07/22 01:01:36;;;;;;;11.50;4.93;;;;;;;15.48;87.43;102062.56;4985586;28;20058;-80
2022/07/22 01:04:02;;;;;;;11.30;5.25;;;;;;;15.54;87.41;102069.88;4986943;28;20026;-78
2022/07/22 01:06:32;;;;;;;12.05;4.60;;;;;;;15.57;87.47;102070.47;4983265;28;20022;-80
2022/07/22 01:08:57;;;;;;;10.95;4.13;;;;;;;15.63;87.88;102061.31;4985165;28;20026;-80
2022/07/22 01:11:23;;;;;;;11.02;4.85;;;;;;;15.55;87.19;102061.13;4985749;28;20382;-79
2022/07/22 01:13:56;;;;;;;12.80;4.53;;;;;;;15.59;87.00;102067.72;4986600;28;20498;-80
2022/07/22 01:16:25;;;;;;;10.40;4.32;;;;;;;15.54;86.51;102067.28;4987399;28;20106;-82
2022/07/22 01:18:51;;;;;;;10.85;4.47;;;;;;;15.47;86.66;102069.56;4994044;28;20026;-81
2022/07/22 01:21:17;;;;;;;11.40;5.10;;;;;;;15.52;86.94;102077.03;4985802;28;20026;-78
2022/07/22 01:23:45;;;;;;;11.48;4.32;;;;;;;15.47;87.38;102068.75;4987063;28;20058;-81
2022/07/22 01:26:12;;;;;;;13.45;4.72;;;;;;;15.54;87.81;102072.50;4984676;28;20034;-79
2022/07/22 01:28:37;;;;;;;11.40;4.80;;;;;;;15.51;87.76;102075.38;4986358;28;20045;-80
2022/07/22 01:31:03;;;;;;;12.65;4.70;;;;;;;15.62;86.91;102072.72;4999366;28;20031;-79
2022/07/22 01:33:28;;;;;;;10.68;4.30;;;;;;;15.54;87.37;102069.88;4983655;28;20033;-79
2022/07/22 01:35:54;;;;;;;14.70;5.60;;;;;;;15.49;87.50;102061.63;4985031;28;20054;-79
2022/07/22 01:38:20;;;;;;;9.30;4.57;;;;;;;15.47;86.74;102063.50;4986786;28;20100;-81
2022/07/22 01:40:46;;;;;;;11.18;4.50;;;;;;;15.53;86.39;102060.38;4979874;28;20038;-81
2022/07/22 01:43:15;;;;;;;12.23;4.60;;;;;;;15.51;87.35;102072.78;4986737;28;20049;-77
2022/07/22 01:45:41;;;;;;;13.30;5.07;;;;;;;15.60;86.52;102069.41;5001614;28;20390;-77
2022/07/22 01:48:06;;;;;;;12.07;4.55;;;;;;;15.56;86.89;102063.59;4987600;28;20542;-79
2022/07/22 01:50:32;;;;;;;14.80;5.00;;;;;;;15.52;86.76;102061.34;4985964;28;20364;-79
2022/07/22 01:52:57;;;;;;;13.50;4.80;;;;;;;15.50;86.38;102063.28;4986657;28;20076;-80
2022/07/22 01:55:22;;;;;;;12.20;4.82;;;;;;;15.37;86.79;102064.28;4995797;28;20068;-79
2022/07/22 01:57:48;;;;;;;11.80;5.20;;;;;;;15.51;86.50;102064.94;4986511;28;20034;-81
2022/07/22 02:00:14;;;;;;;12.30;4.68;;;;;;;15.41;87.04;102068.28;4986100;28;20022;-75
2022/07/22 02:02:39;;;;;;;12.65;4.50;;;;;;;15.39;87.33;102057.13;4986782;28;20026;-79
2022/07/22 02:05:06;;;;;;;14.07;4.97;;;;;;;15.41;87.31;102055.22;4985771;28;20026;-79
2022/07/22 02:07:32;;;;;;;12.65;4.90;;;;;;;15.43;87.29;102056.91;4984891;28;20418;-78
2022/07/22 02:09:57;;;;;;;10.63;4.38;;;;;;;15.40;86.76;102048.34;4986278;28;20022;-79
2022/07/22 02:12:23;;;;;;;11.70;4.18;;;;;;;15.39;85.97;102054.53;5001958;28;20517;-79
2022/07/22 02:14:49;;;;;;;9.20;4.22;;;;;;;15.36;86.48;102052.16;4985595;28;20062;-77
2022/07/22 02:17:15;;;;;;;9.18;4.07;;;;;;;15.31;86.15;102054.34;4986211;28;20038;-78
2022/07/22 02:19:41;;;;;;;9.15;3.67;;;;;;;15.31;86.03;102054.34;4986320;28;20459;-78
2022/07/22 02:22:07;;;;;;;10.93;3.70;;;;;;;15.22;86.13;102054.25;4985878;28;20557;-77
2022/07/22 02:24:32;;;;;;;9.70;3.33;;;;;;;15.19;85.83;102052.69;4984712;28;20094;-79
2022/07/22 02:26:58;;;;;;;13.10;3.67;;;;;;;15.15;85.48;102053.94;4989129;28;20402;-79
2022/07/22 02:29:23;;;;;;;6.78;3.08;;;;;;;15.21;85.68;102056.03;4989811;28;20029;-81
2022/07/22 02:31:49;;;;;;;11.73;3.30;;;;;;;15.20;84.75;102051.78;4990378;28;20793;-80
2022/07/22 02:34:15;;;;;;;9.68;3.00;;;;;;;15.14;84.74;102052.28;4992377;28;20556;-79
2022/07/22 02:36:40;;;;;;;8.38;3.20;;;;;;;15.11;85.15;102049.91;4990052;28;20036;-79
2022/07/22 02:39:06;;;;;;;8.95;3.40;;;;;;;15.09;85.93;102052.66;4989269;28;20037;-80
2022/07/22 02:41:32;;;;;;;9.90;3.42;;;;;;;15.11;85.70;102049.91;4989611;28;20057;-80
2022/07/22 02:43:58;;;;;;;9.43;3.20;;;;;;;15.09;85.38;102049.22;4991438;28;20572;-75
2022/07/22 02:46:24;;;;;;;8.52;3.05;;;;;;;15.14;85.62;102047.06;4988810;28;20018;-75
2022/07/22 02:48:52;;;;;;;11.05;3.20;;;;;;;15.12;85.65;102059.38;4988240;28;20030;-75
2022/07/22 02:51:18;;;;;;;6.78;3.42;;;;;;;15.22;85.33;102049.84;4989568;28;20030;-75
2022/07/22 02:53:43;;;;;;;9.68;2.72;;;;;;;15.19;84.74;102060.53;4989783;28;20030;-76
2022/07/22 02:56:09;;;;;;;8.10;3.17;;;;;;;15.21;85.32;102057.81;4989975;28;20038;-78
2022/07/22 02:58:34;;;;;;;8.00;2.97;;;;;;;15.26;85.84;102059.13;4983426;28;20063;-75
2022/07/22 03:01:00;;;;;;;7.40;2.80;;;;;;;15.34;85.22;102061.09;4988516;28;20386;-75
2022/07/22 03:03:25;;;;;;;8.82;3.38;;;;;;;15.34;85.88;102048.84;4988027;28;20030;-75
2022/07/22 03:05:51;;;;;;;8.63;3.47;;;;;;;15.32;85.41;102045.53;4990369;28;20513;-75
2022/07/22 03:08:17;;;;;;;8.13;3.40;;;;;;;15.33;85.69;102052.41;4988952;28;20049;-75
2022/07/22 03:10:42;;;;;;;7.72;3.85;;;;;;;15.28;85.11;102057.19;4990414;28;20030;-75
2022/07/22 03:13:07;;;;;;;8.73;3.90;;;;;;;15.31;85.40;102038.66;4988484;28;20033;-75
2022/07/22 03:15:33;;;;;;;10.18;3.63;;;;;;;15.31;85.12;102049.13;4988575;28;20414;-75
2022/07/22 03:17:58;;;;;;;9.38;3.72;;;;;;;15.28;86.44;102046.72;4989357;28;20518;-75
2022/07/22 03:20:23;;;;;;;9.15;3.83;;;;;;;15.35;86.12;102045.28;4989381;28;20034;-75
2022/07/22 03:22:49;;;;;;;8.55;3.35;;;;;;;15.37;85.69;102055.63;4989193;28;20445;-75
2022/07/22 03:25:14;;;;;;;9.18;3.35;;;;;;;15.40;85.80;102058.78;4989044;28;20030;-76
2022/07/22 03:27:39;;;;;;;11.05;3.60;;;;;;;15.45;86.11;102052.38;4989408;28;20470;-76
2022/07/22 03:30:06;;;;;;;9.25;3.53;;;;;;;15.40;84.65;102048.34;4990176;28;20547;-75
2022/07/22 03:32:31;;;;;;;10.00;3.30;;;;;;;15.43;84.39;102046.44;4988064;28;20026;-75
2022/07/22 03:34:56;;;;;;;7.38;3.42;;;;;;;15.38;84.13;102045.03;4987718;28;20600;-76
2022/07/22 03:37:22;;;;;;;10.38;3.25;;;;;;;15.42;83.95;102050.81;4988234;28;20429;-76
2022/07/22 03:39:47;;;;;;;7.80;3.58;;;;;;;15.36;83.97;102046.91;4988502;28;20036;-76
2022/07/22 03:42:13;;;;;;;7.80;3.30;;;;;;;15.28;84.91;102038.91;4988819;28;20029;-75
2022/07/22 03:44:38;;;;;;;8.18;3.47;;;;;;;15.37;85.07;102043.38;4989291;28;20092;-75
2022/07/22 03:47:04;;;;;;;12.80;3.80;;;;;;;15.43;84.86;102057.72;4988210;28;20037;-75
2022/07/22 03:49:30;;;;;;;7.22;3.70;;;;;;;15.34;86.22;102041.00;4991476;28;20053;-75
2022/07/22 03:51:56;;;;;;;10.98;4.10;;;;;;;15.43;85.18;102041.22;4987454;28;20514;-76
2022/07/22 03:54:21;;;;;;;11.30;3.95;;;;;;;15.31;85.11;102028.19;4988073;28;20081;-76
2022/07/22 03:56:46;;;;;;;9.27;3.80;;;;;;;15.32;84.54;102039.47;4987789;28;20040;-75
2022/07/22 03:59:12;;;;;;;7.50;3.60;;;;;;;15.36;84.41;102031.25;4988478;28;20061;-76
2022/07/22 04:01:37;;;;;;;9.57;3.83;;;;;;;15.38;84.71;102042.41;4987238;28;20105;-75
2022/07/22 04:04:03;;;;;;;11.35;3.85;;;;;;;15.33;85.29;102047.19;4988659;28;20018;-75
2022/07/22 04:06:28;;;;;;;10.45;3.85;;;;;;;15.31;84.74;102038.66;4987918;28;20022;-76
2022/07/22 04:08:54;;;;;;;7.72;3.47;;;;;;;15.41;85.24;102044.75;4987897;28;20448;-75
2022/07/22 04:11:20;;;;;;;9.70;3.63;;;;;;;15.37;85.78;102048.59;5000385;28;20050;-75
2022/07/22 04:13:46;;;;;;;11.23;3.80;;;;;;;15.38;85.25;102047.66;4987549;28;20124;-75
2022/07/22 04:16:11;;;;;;;10.32;3.83;;;;;;;15.35;85.56;102034.81;4986278;28;20026;-76
2022/07/22 04:18:37;;;;;;;8.65;3.80;;;;;;;15.41;85.51;102039.53;4983157;28;20022;-76
2022/07/22 04:21:02;;;;;;;11.85;4.22;;;;;;;15.41;85.33;102049.16;4986350;28;20034;-76
2022/07/22 04:23:27;;;;;;;8.05;3.50;;;;;;;15.46;84.88;102046.16;4986021;28;20049;-75
2022/07/22 04:25:53;;;;;;;10.63;3.90;;;;;;;15.47;85.25;102045.22;4987275;28;20591;-75
2022/07/22 04:28:18;;;;;;;8.95;3.83;;;;;;;15.49;85.77;102046.75;4983736;28;20073;-75
2022/07/22 04:30:44;;;;;;;9.02;3.63;;;;;;;15.45;84.89;102028.84;4986434;28;20026;-76
2022/07/22 04:33:09;;;;;;;8.38;3.65;;;;;;;15.39;84.76;102038.84;4987189;28;20030;-75
2022/07/22 04:35:35;;;;;;;10.30;3.85;;;;;;;15.45;84.67;102045.34;4986073;28;20110;-75
2022/07/22 04:38:00;;;;;;;11.88;4.40;;;;;;;15.49;85.20;102040.72;4987942;28;20053;-75
2022/07/22 04:40:25;;;;;;;9.82;4.13;;;;;;;15.42;85.24;102032.50;4994595;28;20037;-75
2022/07/22 04:42:51;;;;;;;8.95;4.15;;;;;;;15.41;85.43;102039.53;4987739;28;20022;-75
2022/07/22 04:45:16;;;;;;;10.77;4.05;;;;;;;15.52;84.97;102037.81;4986007;28;20026;-76
2022/07/22 04:47:42;;;;;;;10.82;4.32;;;;;;;15.41;84.94;102023.03;4987060;28;20058;-75
2022/07/22 04:50:07;;;;;;;10.48;4.30;;;;;;;15.51;85.79;102036.16;4986920;28;20523;-75
2022/07/22 04:52:33;;;;;;;9.30;4.35;;;;;;;15.47;85.94;102027.75;4987759;28;20033;-75
2022/07/22 04:54:58;;;;;;;12.38;4.25;;;;;;;15.50;84.39;102042.34;4987837;28;20034;-75
2022/07/22 04:57:25;;;;;;;9.10;4.03;;;;;;;15.54;85.04;102038.50;4978215;28;20034;-75
2022/07/22 04:59:51;;;;;;;9.95;4.78;;;;;;;15.53;84.96;102036.84;4985665;28;20026;-75
2022/07/22 05:02:17;;;;;;;10.18;4.68;;;;;;;15.50;84.83;102037.13;4986466;28;20026;-75
2022/07/22 05:04:42;;;;;;;8.98;4.57;;;;;;;15.59;85.17;102033.72;4987109;28;20034;-74
2022/07/22 05:07:07;;;;;;;9.70;4.40;;;;;;;15.62;85.78;102041.34;4985323;28;20101;-75
2022/07/22 05:09:33;;;;;;;9.25;4.18;;;;;;;15.57;85.32;102033.03;4987479;28;20425;-75
2022/07/22 05:11:58;;;;;;;9.40;3.78;;;;;;;15.63;85.74;102037.78;4985999;28;20031;-75
2022/07/22 05:14:24;;;;;;;9.13;3.70;;;;;;;15.59;84.70;102031.94;4985728;28;20038;-76
2022/07/22 05:16:49;;;;;;;8.82;3.55;;;;;;;15.60;84.25;102027.56;4982150;28;20026;-75
2022/07/22 05:19:15;;;;;;;10.13;3.75;;;;;;;15.59;84.20;102024.09;4986068;28;20022;-75
2022/07/22 05:21:40;;;;;;;9.45;4.03;;;;;;;15.65;84.64;102030.63;4986543;28;20529;-76
2022/07/22 05:24:06;;;;;;;9.63;3.83;;;;;;;15.65;84.51;102030.63;4987126;28;20060;-74
2022/07/22 05:26:33;;;;;;;9.23;4.22;;;;;;;15.71;84.78;102024.88;4985806;28;20073;-74
2022/07/22 05:28:58;;;;;;;10.75;4.30;;;;;;;15.69;84.95;102034.66;4985228;28;20026;-75
2022/07/22 05:31:24;;;;;;;9.70;4.40;;;;;;;15.77;84.44;102034.84;4984837;28;20088;-75
2022/07/22 05:33:49;;;;;;;9.82;4.10;;;;;;;15.82;84.36;102037.88;4984021;28;20034;-74
2022/07/22 05:36:15;;;;;;;9.70;4.13;;;;;;;15.74;84.21;102045.56;4983619;28;20097;-75
2022/07/22 05:38:40;;;;;;;10.55;4.22;;;;;;;15.77;85.44;102045.31;4983293;28;20116;-75
2022/07/22 05:41:05;;;;;;;9.65;4.00;;;;;;;15.78;83.76;102046.97;4984771;28;20529;-75
2022/07/22 05:43:31;;;;;;;10.52;3.83;;;;;;;15.80;83.71;102046.84;4983914;28;20030;-75
2022/07/22 05:45:56;;;;;;;12.02;3.88;;;;;;;15.75;83.76;102057.69;4986133;28;20177;-75
2022/07/22 05:48:22;;;;;;;9.80;3.78;;;;;;;15.77;83.93;102044.47;4986158;28;20040;-75
2022/07/22 05:50:47;;;;;;;9.25;3.60;;;;;;;15.84;83.80;102051.69;4987326;28;20022;-74
2022/07/22 05:53:13;;;;;;;9.65;3.25;;;;;;;15.95;84.08;102047.34;4985730;28;20041;-75
2022/07/22 05:55:38;;;;;;;10.32;3.28;;;;;;;15.91;83.47;102044.97;4986258;28;20038;-74
2022/07/22 05:58:03;;;;;;;10.05;3.90;;;;;;;15.85;82.63;102048.09;4986138;28;20026;-75
2022/07/22 06:00:29;;;;;;;8.13;3.20;;;;;;;15.93;83.13;102050.88;4987798;28;20125;-74
2022/07/22 06:02:54;;;;;;;9.35;3.00;;;;;;;16.01;82.21;102054.66;4991019;28;20022;-75
2022/07/22 06:05:20;;;;;;;9.43;2.90;;;;;;;15.89;81.11;102049.50;4989389;28;20087;-77
2022/07/22 06:07:45;;;;;;;8.55;3.05;;;;;;;15.92;81.59;102053.66;4990283;28;20030;-76
2022/07/22 06:10:11;;;;;;;6.80;2.75;;;;;;;16.03;81.68;102056.19;4989087;28;20092;-75
2022/07/22 06:12:36;;;;;;;8.85;2.67;;;;;;;16.00;79.99;102056.47;4988900;28;20480;-75
2022/07/22 06:15:02;;;;;;;8.18;2.42;;;;;;;16.09;80.52;102049.59;4988418;28;20047;-75
2022/07/22 06:17:28;;;;;;;7.85;2.35;;;;;;;16.01;80.17;102042.41;4989438;28;20034;-76
2022/07/22 06:19:53;;;;;;;5.75;2.20;;;;;;;16.09;80.08;102045.19;5005216;28;20432;-75
2022/07/22 06:22:18;;;;;;;9.35;2.40;;;;;;;16.15;79.33;102043.84;4989611;28;20110;-75
2022/07/22 06:24:45;;;;;;;7.70;2.50;;;;;;;16.17;79.23;102047.13;5004285;28;20161;-75
2022/07/22 06:27:10;;;;;;;9.70;2.85;;;;;;;16.13;78.96;102043.16;4989098;28;20026;-75
2022/07/22 06:29:36;;;;;;;6.97;3.03;;;;;;;16.15;78.99;102051.69;4988441;28;20023;-78
2022/07/22 06:32:02;;;;;;;4.80;2.22;;;;;;;16.18;78.21;102043.59;4988220;28;20030;-75
2022/07/22 06:34:27;;;;;;;5.88;2.00;;;;;;;16.06;76.43;102039.41;4988540;28;20030;-75
2022/07/22 06:36:52;;;;;;;6.47;2.10;;;;;;;16.15;78.02;102033.38;4989411;28;20069;-76
2022/07/22 06:39:18;;;;;;;6.07;2.00;;;;;;;16.14;76.18;102047.41;4987934;28;20194;-75
2022/07/22 06:41:43;;;;;;;4.47;1.75;;;;;;;16.15;75.75;102038.59;4986530;28;20065;-75
2022/07/22 06:44:09;;;;;;;5.07;1.90;;;;;;;16.17;75.37;102036.66;5004479;28;20484;-75
2022/07/22 06:46:34;;;;;;;6.00;1.83;;;;;;;16.12;74.10;102050.16;5001419;28;20026;-76
2022/07/22 06:48:59;;;;;;;5.30;1.90;;;;;;;16.17;76.17;102047.13;5004465;28;20030;-77
2022/07/22 06:51:25;;;;;;;5.63;1.63;;;;;;;16.27;76.54;102050.63;5004796;28;20022;-75
2022/07/22 06:53:50;;;;;;;5.47;1.80;;;;;;;16.22;74.85;102055.44;4989585;28;20065;-76
2022/07/22 06:56:15;;;;;;;5.60;2.00;;;;;;;16.26;75.36;102051.59;4988351;28;20097;-75
2022/07/22 06:58:41;;;;;;;5.35;1.83;;;;;;;16.30;75.57;102052.16;4989314;28;20053;-75
2022/07/22 07:01:06;;;;;;;6.72;1.80;;;;;;;16.36;75.91;102046.41;4989774;28;20338;-75
2022/07/22 07:03:32;;;;;;;4.90;1.90;;;;;;;16.36;75.27;102046.41;4989269;28;20497;-75
2022/07/22 07:05:57;;;;;;;6.85;1.88;;;;;;;16.34;74.14;102041.28;4989093;28;20030;-75
2022/07/22 07:08:22;;;;;;;4.55;1.92;;;;;;;16.38;75.29;102050.53;4988129;28;20061;-75
2022/07/22 07:10:48;;;;;;;6.28;2.15;;;;;;;16.40;74.42;102038.16;4988312;28;20026;-75
2022/07/22 07:13:13;;;;;;;5.43;2.08;;;;;;;16.44;73.76;102054.41;4999201;28;20140;-75
2022/07/22 07:15:39;;;;;;;5.78;2.10;;;;;;;16.52;75.13;102045.91;4988405;28;20058;-75
2022/07/22 07:18:04;;;;;;;8.45;2.30;;;;;;;16.53;74.87;102058.03;4988471;28;20054;-75
2022/07/22 07:20:30;;;;;;;6.13;2.47;;;;;;;16.56;74.78;102057.75;4988590;28;20037;-76
2022/07/22 07:22:55;;;;;;;4.60;1.92;;;;;;;16.64;76.30;102053.50;4988174;28;20057;-76
2022/07/22 07:25:21;;;;;;;7.07;2.10;;;;;;;16.66;74.55;102048.13;4988754;28;20154;-76
2022/07/22 07:27:47;;;;;;;5.15;1.80;;;;;;;16.64;74.97;102044.81;4988889;28;20034;-75
2022/07/22 07:30:12;;;;;;;4.78;1.50;;;;;;;16.64;73.14;102040.41;4989039;28;20022;-75
2022/07/22 07:32:38;;;;;;;5.30;1.70;;;;;;;16.64;72.39;102045.66;4984140;28;20369;-76
2022/07/22 07:35:05;;;;;;;3.55;1.40;;;;;;;16.66;71.54;102048.13;4988619;28;20052;-75
2022/07/22 07:37:31;;;;;;;5.65;1.63;;;;;;;16.67;72.40;102047.16;4988457;28;20027;-75
2022/07/22 07:39:57;;;;;;;4.45;1.70;;;;;;;16.70;72.06;102028.56;4986057;28;20023;-76
2022/07/22 07:42:22;;;;;;;4.90;1.73;;;;;;;16.74;71.80;102035.19;4988190;28;20026;-76
2022/07/22 07:44:48;;;;;;;4.50;1.55;;;;;;;16.81;73.30;102043.38;4988826;28;20057;-76
2022/07/22 07:47:17;;;;;;;5.72;1.80;;;;;;;16.83;72.62;102039.63;4988382;28;20033;-77
2022/07/22 07:49:43;;;;;;;4.47;1.50;;;;;;;16.97;72.87;102041.88;4987704;28;20164;-75
2022/07/22 07:52:09;;;;;;;4.65;1.52;;;;;;;16.95;72.05;102043.78;4985848;28;20030;-76
2022/07/22 07:54:34;;;;;;;4.43;1.63;;;;;;;16.94;71.18;102046.53;4987947;28;20041;-76
2022/07/22 07:57:00;;;;;;;6.18;2.05;;;;;;;16.98;71.81;102043.50;4988030;28;20054;-76
2022/07/22 07:59:25;;;;;;;5.80;1.80;;;;;;;17.08;73.31;102047.91;4987537;28;20026;-75
2022/07/22 08:01:50;;;;;;;5.18;1.50;;;;;;;17.03;70.16;102047.50;4988312;28;20529;-76
2022/07/22 08:04:16;;;;;;;4.60;1.63;;;;;;;17.15;71.07;102043.81;4987411;28;20030;-76
2022/07/22 08:06:41;;;;;;;6.07;1.70;;;;;;;17.17;70.65;102052.34;4987819;28;21621;-75
2022/07/22 08:09:07;;;;;;;6.47;1.98;;;;;;;17.24;71.38;102053.44;4986825;28;20026;-77
2022/07/22 08:11:32;;;;;;;4.70;1.35;;;;;;;17.22;69.34;102055.38;4987750;28;20639;-75
2022/07/22 08:13:57;;;;;;;4.93;1.60;;;;;;;17.35;71.92;102045.44;4987983;28;20057;-75
2022/07/22 08:16:23;;;;;;;4.25;1.70;;;;;;;17.49;70.88;102052.88;4987427;28;20374;-77
2022/07/22 08:18:48;;;;;;;4.50;1.50;;;;;;;17.54;71.25;102044.56;4988264;28;20060;-75
2022/07/22 08:21:14;;;;;;;3.70;1.48;;;;;;;17.57;69.40;102039.06;4986647;28;20030;-76
2022/07/22 08:23:39;;;;;;;6.97;1.52;;;;;;;17.60;68.22;102043.19;4987130;28;20502;-75
2022/07/22 08:26:04;;;;;;;3.55;1.30;;;;;;;17.71;69.11;102040.38;4987976;28;20417;-75
2022/07/22 08:28:30;;;;;;;3.03;1.30;;;;;;;17.59;66.07;102041.53;4982876;28;20513;-76
2022/07/22 08:30:55;;;;;;;4.90;1.67;;;;;;;17.68;68.84;102040.69;4987845;28;20030;-76
2022/07/22 08:33:21;;;;;;;6.32;1.80;;;;;;;17.70;68.19;102033.50;4987538;28;20026;-76
2022/07/22 08:35:46;;;;;;;5.68;1.65;;;;;;;17.70;67.91;102034.31;4987262;28;20073;-76
2022/07/22 08:38:12;;;;;;;4.00;1.50;;;;;;;17.75;68.02;102026.06;4986860;28;20042;-75
2022/07/22 08:40:37;;;;;;;6.78;1.50;;;;;;;17.80;67.67;102029.06;4986475;28;20105;-76
2022/07/22 08:43:03;;;;;;;6.03;1.67;;;;;;;17.77;65.34;102030.19;4987399;28;20026;-76
2022/07/22 08:45:30;;;;;;;4.97;1.70;;;;;;;17.84;67.67;102040.13;4986606;28;20022;-75
2022/07/22 08:47:56;;;;;;;4.43;1.50;;;;;;;17.87;68.16;102035.41;4987789;28;20073;-75
2022/07/22 08:50:22;;;;;;;3.85;1.50;;;;;;;18.02;68.78;102026.09;4985371;28;20026;-75
2022/07/22 08:52:48;;;;;;;5.18;1.55;;;;;;;18.07;67.47;102030.94;4987113;28;20034;-75
2022/07/22 08:55:13;;;;;;;4.00;1.58;;;;;;;18.09;66.79;102020.28;4986246;28;20541;-75
2022/07/22 08:57:47;;;;;;;4.55;1.42;;;;;;;18.16;67.42;102034.47;4976813;28;20069;-75
2022/07/22 09:00:16;;;;;;;4.90;1.60;;;;;;;18.11;64.56;102020.94;4986421;28;20026;-76
2022/07/22 09:02:42;;;;;;;4.13;1.50;;;;;;;18.23;63.90;102028.47;4987921;28;20061;-75
2022/07/22 09:05:10;;;;;;;4.43;1.50;;;;;;;18.27;62.90;102031.66;4982917;28;20118;-75
2022/07/22 09:07:38;;;;;;;5.38;1.50;;;;;;;18.43;64.68;102021.34;4985620;28;20362;-75
2022/07/22 09:10:06;;;;;;;;;;;;;;;18.51;65.94;102023.22;4986012;28;20050;-75
2022/07/22 09:12:32;;;;;;;4.22;1.48;;;;;;;18.38;64.37;102014.88;4982926;28;19929;-75
2022/07/22 09:14:59;;;;;;;4.50;1.60;;;;;;;18.33;63.98;102030.25;4985775;28;20054;-75
2022/07/22 09:17:29;;;;;;;6.18;1.40;;;;;;;18.42;64.73;102024.94;4984947;28;20487;-75
2022/07/22 09:19:59;;;;;;;4.57;1.58;;;;;;;18.23;62.74;102025.03;4985513;28;20243;-76
2022/07/22 09:22:32;;;;;;;4.57;1.75;;;;;;;18.22;62.02;102031.25;4984021;28;20557;-76
2022/07/22 09:24:59;;;;;;;4.63;1.40;;;;;;;18.14;64.15;102031.16;4983226;28;20427;-76
2022/07/22 09:27:26;;;;;;;5.75;1.80;;;;;;;18.32;64.71;102026.78;4981735;28;20508;-76
2022/07/22 09:29:53;;;;;;;3.25;1.60;;;;;;;18.42;64.02;102024.94;4985888;28;20041;-77
2022/07/22 09:32:19;;;;;;;4.43;1.52;;;;;;;18.28;60.05;102028.03;4983948;28;20033;-77
2022/07/22 09:34:44;;;;;;;4.13;1.45;;;;;;;18.49;62.98;102020.75;4984797;28;20030;-77
2022/07/22 09:37:11;;;;;;;3.80;1.50;;;;;;;18.51;64.61;102028.47;5001056;28;20014;-77
2022/07/22 09:39:36;;;;;;;3.17;1.40;;;;;;;18.43;62.27;102018.72;4985335;28;20022;-77
2022/07/22 09:42:07;;;;;;;4.90;1.40;;;;;;;18.53;61.92;102016.84;4986420;28;20072;-77
2022/07/22 09:44:34;;;;;;;4.03;1.60;;;;;;;18.55;62.41;102001.75;4997998;28;20126;-78
2022/07/22 09:46:59;;;;;;;4.03;1.40;;;;;;;18.69;61.68;102007.50;4986939;28;20036;-78
2022/07/22 09:49:39;;;;;;;3.97;1.70;;;;;;;18.71;62.00;102008.19;4984132;28;20394;-77
2022/07/22 09:52:06;;;;;;;4.63;1.60;;;;;;;18.81;61.05;102008.94;4985239;28;20037;-77
2022/07/22 09:54:32;;;;;;;4.15;1.42;;;;;;;18.88;59.45;102007.38;4985522;28;20683;-77
2022/07/22 09:56:58;;;;;;;6.15;1.80;;;;;;;18.80;60.29;102013.34;4999174;28;20030;-77
2022/07/22 09:59:24;;;;;;;4.90;1.70;;;;;;;19.02;60.76;101996.31;4983822;28;20038;-76
2022/07/22 10:01:56;;;;;;;5.72;1.60;;;;;;;19.13;60.37;101999.69;4985392;28;20054;-75
2022/07/22 10:04:24;;;;;;;6.65;1.70;;;;;;;19.56;60.19;102009.38;4982134;28;20068;-75
2022/07/22 10:06:50;;;;;;;3.90;1.45;;;;;;;19.61;58.55;102012.38;4983867;28;20049;-75
2022/07/22 10:09:17;;;;;;;3.88;1.42;;;;;;;19.69;58.36;102003.72;4982778;28;20109;-76
2022/07/22 10:11:45;;;;;;;3.72;1.48;;;;;;;19.78;58.75;101992.22;4984620;28;20046;-76
2022/07/22 10:14:14;;;;;;;4.37;1.53;;;;;;;19.87;57.38;102007.91;4984775;28;20058;-76
2022/07/22 10:16:40;;;;;;;3.78;1.40;;;;;;;19.70;56.06;102000.09;4983062;28;20048;-76
2022/07/22 10:19:06;;;;;;;4.07;1.30;;;;;;;19.72;57.80;102000.75;4983372;28;20022;-76
2022/07/22 10:21:34;;;;;;;5.05;1.60;;;;;;;19.68;58.47;101999.44;4983259;28;20026;-76
2022/07/22 10:24:06;;;;;;;;;;;;;;;19.90;59.86;102012.06;4999652;28;20530;-76
2022/07/22 10:26:51;;;;;;;5.97;1.75;;;;;;;19.62;59.64;102014.88;4982900;28;20043;-76
2022/07/22 10:29:40;;;;;;;4.15;1.50;;;;;;;19.66;60.26;102006.63;4997207;28;20121;-76
2022/07/22 10:32:17;;;;;;;3.33;1.45;;;;;;;19.68;60.15;102012.59;4984210;28;20120;-76
2022/07/22 10:35:03;;;;;;;3.53;1.70;;;;;;;19.59;58.26;102017.78;4983912;28;20030;-76
2022/07/22 10:37:35;;;;;;;4.90;1.42;;;;;;;19.54;59.00;102027.91;4983038;28;20030;-76
2022/07/22 10:40:15;;;;;;;4.65;1.50;;;;;;;19.65;58.95;102028.69;4998631;28;20463;-78
2022/07/22 10:43:06;;;;;;;3.00;1.60;;;;;;;19.60;58.52;102026.50;4981066;28;20053;-76
2022/07/22 10:45:47;;;;;;;5.53;1.90;;;;;;;19.75;58.15;102021.50;4976840;28;20049;-76
2022/07/22 10:48:32;;;;;;;3.75;1.50;;;;;;;19.81;57.65;102018.25;4988512;28;20022;-76
2022/07/22 10:51:08;;;;;;;4.85;1.80;;;;;;;19.97;57.99;102013.06;4989340;28;20105;-76
2022/07/22 10:53:51;;;;;;;4.00;1.90;;;;;;;19.86;57.23;102015.97;4984324;28;20038;-77
2022/07/22 10:56:32;;;;;;;4.43;1.80;;;;;;;19.80;55.72;102016.59;5000890;28;20065;-77
2022/07/22 10:59:11;;;;;;;3.75;1.80;;;;;;;19.67;54.95;102016.19;4985043;28;20085;-77
2022/07/22 11:01:39;;;;;;;5.38;1.90;;;;;;;19.95;57.01;102015.00;4986931;28;20044;-75
2022/07/22 11:04:09;;;;;;;;;;;;;;;20.12;58.59;102022.00;4989046;28;20030;-75
2022/07/22 11:06:35;;;;;;;5.93;1.90;;;;;;;20.11;57.48;102009.81;4988996;28;19944;-75
2022/07/22 11:09:03;;;;;;;3.95;1.70;;;;;;;19.96;54.14;102006.16;4988064;28;20030;-76
2022/07/22 11:11:45;;;;;;;4.57;1.50;;;;;;;20.19;55.63;101995.06;4988647;28;20038;-79
2022/07/22 11:14:30;;;;;;;2.70;1.70;;;;;;;20.14;55.58;101991.06;5000939;28;20082;-77
2022/07/22 11:17:04;;;;;;;4.53;1.92;;;;;;;20.35;54.87;101990.63;4986677;28;20371;-76
2022/07/22 11:19:37;;;;;;;5.22;1.80;;;;;;;20.10;54.95;101989.75;4989136;28;20034;-76
2022/07/22 11:22:15;;;;;;;5.45;1.98;;;;;;;20.32;55.58;101980.44;4988450;28;20030;-76